createdAt,value
2023-02-04T00:00:42.973Z,10.60
2023-02-04T00:03:10.300Z,10.60
2023-02-04T00:05:37.690Z,10.70
2023-02-04T00:08:05.070Z,10.80
2023-02-04T00:10:33.045Z,10.80
2023-02-04T00:13:00.806Z,10.80
2023-02-04T00:15:30.476Z,10.80
2023-02-04T00:17:59.848Z,10.80
2023-02-04T00:20:29.866Z,10.70
2023-02-04T00:22:57.280Z,10.60
2023-02-04T00:25:24.752Z,10.60
2023-02-04T00:27:52.025Z,10.50
2023-02-04T00:30:19.885Z,10.50
2023-02-04T00:32:49.630Z,10.50
2023-02-04T00:35:19.743Z,10.50
2023-02-04T00:37:46.992Z,10.60
2023-02-04T00:40:14.250Z,10.70
2023-02-04T00:42:41.781Z,10.60
2023-02-04T00:45:12.884Z,10.70
2023-02-04T00:47:45.703Z,10.70
2023-02-04T00:50:13.141Z,10.70
2023-02-04T00:52:40.453Z,10.60
2023-02-04T00:55:10.418Z,10.70
2023-02-04T00:57:38.148Z,10.80
2023-02-04T01:00:11.420Z,10.90
2023-02-04T01:02:40.642Z,11.00
2023-02-04T01:05:11.491Z,11.10
2023-02-04T01:07:38.809Z,11.20
2023-02-04T01:10:06.454Z,11.20
2023-02-04T01:12:38.450Z,11.40
2023-02-04T01:15:06.270Z,11.40
2023-02-04T01:17:33.481Z,11.40
2023-02-04T01:20:00.720Z,11.30
2023-02-04T01:22:30.435Z,11.40
2023-02-04T01:24:59.886Z,11.40
2023-02-04T01:27:27.154Z,11.50
2023-02-04T01:29:56.932Z,11.50
2023-02-04T01:32:24.175Z,11.10
2023-02-04T01:34:55.903Z,10.60
2023-02-04T01:37:24.509Z,10.30
2023-02-04T01:39:53.960Z,9.90
2023-02-04T01:42:23.936Z,9.70
2023-02-04T01:44:53.994Z,9.50
2023-02-04T01:47:25.563Z,9.50
2023-02-04T01:49:57.151Z,9.40
2023-02-04T01:52:25.341Z,9.30
2023-02-04T01:54:53.605Z,9.30
2023-02-04T01:57:23.039Z,9.20
2023-02-04T01:59:54.706Z,9.20
2023-02-04T02:02:51.967Z,9.20
2023-02-04T02:05:31.001Z,9.20
2023-02-04T02:08:00.295Z,9.30
2023-02-04T02:10:30.864Z,9.30
2023-02-04T02:13:01.329Z,9.30
2023-02-04T02:15:28.942Z,9.30
2023-02-04T02:17:56.561Z,9.30
2023-02-04T02:20:25.841Z,9.40
2023-02-04T02:23:18.801Z,9.40
2023-02-04T02:25:49.416Z,9.40
2023-02-04T02:28:20.390Z,9.50
2023-02-04T02:30:53.265Z,9.50
2023-02-04T02:33:26.277Z,9.70
2023-02-04T02:35:53.658Z,9.80
2023-02-04T02:38:23.391Z,9.80
2023-02-04T02:40:52.530Z,10.00
2023-02-04T02:43:26.932Z,10.20
2023-02-04T02:45:56.963Z,10.40
2023-02-04T02:48:24.404Z,10.50
2023-02-04T02:50:54.118Z,10.30
2023-02-04T02:53:22.090Z,10.30
2023-02-04T02:55:52.075Z,10.20
2023-02-04T02:58:37.632Z,10.20
2023-02-04T03:01:08.951Z,10.20
2023-02-04T03:03:40.208Z,10.30
2023-02-04T03:06:20.860Z,10.40
2023-02-04T03:08:50.555Z,10.60
2023-02-04T03:11:20.121Z,10.90
2023-02-04T03:13:47.735Z,11.00
2023-02-04T03:16:20.054Z,11.10
2023-02-04T03:18:50.281Z,11.20
2023-02-04T03:21:17.498Z,11.30
2023-02-04T03:23:47.209Z,11.30
2023-02-04T03:26:14.475Z,11.40
2023-02-04T03:28:44.983Z,11.40
2023-02-04T03:31:12.312Z,11.20
2023-02-04T03:33:42.627Z,11.10
2023-02-04T03:36:12.729Z,11.00
2023-02-04T03:38:42.443Z,10.70
2023-02-04T03:41:11.797Z,10.30
2023-02-04T03:43:39.039Z,10.50
2023-02-04T03:46:08.754Z,10.60
2023-02-04T03:48:36.082Z,10.80
2023-02-04T03:51:05.734Z,10.90
2023-02-04T03:53:35.101Z,11.10
2023-02-04T03:56:02.349Z,11.20
2023-02-04T03:58:29.550Z,11.20
2023-02-04T04:00:56.825Z,11.30
2023-02-04T04:03:24.143Z,11.30
2023-02-04T04:05:51.381Z,11.10
2023-02-04T04:08:18.633Z,11.20
2023-02-04T04:10:48.000Z,11.20
2023-02-04T04:13:17.708Z,11.30
2023-02-04T04:15:51.928Z,11.30
2023-02-04T04:18:19.251Z,11.40
2023-02-04T04:20:48.585Z,11.40
2023-02-04T04:23:18.110Z,11.40
2023-02-04T04:25:45.368Z,11.30
2023-02-04T04:28:12.732Z,11.20
2023-02-04T04:30:39.946Z,11.20
2023-02-04T04:33:09.721Z,11.20
2023-02-04T04:35:36.945Z,11.00
2023-02-04T04:38:06.320Z,11.00
2023-02-04T04:40:35.972Z,11.00
2023-02-04T04:43:03.645Z,11.00
2023-02-04T04:45:30.976Z,10.80
2023-02-04T04:48:02.915Z,10.70
2023-02-04T04:50:30.521Z,10.50
2023-02-04T04:52:57.881Z,10.70
2023-02-04T04:55:25.181Z,10.70
2023-02-04T04:57:54.639Z,10.70
2023-02-04T05:00:22.366Z,10.60
2023-02-04T05:02:49.639Z,10.70
2023-02-04T05:05:16.984Z,10.70
2023-02-04T05:07:46.734Z,10.70
2023-02-04T05:10:18.661Z,10.70
2023-02-04T05:12:48.399Z,10.60
2023-02-04T05:15:15.716Z,10.40
2023-02-04T05:17:42.979Z,10.40
2023-02-04T05:20:10.649Z,10.40
2023-02-04T05:22:37.905Z,10.50
2023-02-04T05:25:05.378Z,10.60
2023-02-04T05:27:32.635Z,10.50
2023-02-04T05:29:59.887Z,10.50
2023-02-04T05:32:29.451Z,10.70
2023-02-04T05:34:56.661Z,10.80
2023-02-04T05:37:24.154Z,11.00
2023-02-04T05:39:51.399Z,11.10
2023-02-04T05:42:18.629Z,11.10
2023-02-04T05:44:45.882Z,11.10
2023-02-04T05:47:13.098Z,11.00
2023-02-04T05:49:40.359Z,10.90
2023-02-04T05:52:07.655Z,11.10
2023-02-04T05:54:34.904Z,11.20
2023-02-04T05:57:02.134Z,11.20
2023-02-04T05:59:29.367Z,11.30
2023-02-04T06:01:56.627Z,11.30
2023-02-04T06:04:24.008Z,11.30
2023-02-04T06:06:51.394Z,11.30
2023-02-04T06:09:18.627Z,11.30
2023-02-04T06:11:48.105Z,11.20
2023-02-04T06:14:15.333Z,11.10
2023-02-04T06:16:42.639Z,10.90
2023-02-04T06:19:14.950Z,10.70
2023-02-04T06:21:42.181Z,10.70
2023-02-04T06:24:09.381Z,10.60
2023-02-04T06:26:38.823Z,10.70
2023-02-04T06:29:06.229Z,10.80
2023-02-04T06:31:37.634Z,10.80
2023-02-04T06:34:05.455Z,10.60
2023-02-04T06:36:32.748Z,10.40
2023-02-04T06:39:00.030Z,10.50
2023-02-04T06:41:29.651Z,10.50
2023-02-04T06:43:59.262Z,10.50
2023-02-04T06:46:26.586Z,10.50
2023-02-04T06:48:56.703Z,10.40
2023-02-04T06:51:26.384Z,10.40
2023-02-04T06:53:53.684Z,10.50
2023-02-04T06:56:24.648Z,10.60
2023-02-04T06:58:51.956Z,10.70
2023-02-04T07:01:24.015Z,10.90
2023-02-04T07:03:51.352Z,11.00
2023-02-04T07:06:20.873Z,11.10
2023-02-04T07:08:49.562Z,11.00
2023-02-04T07:11:16.877Z,11.10
2023-02-04T07:13:46.600Z,11.20
2023-02-04T07:16:14.728Z,11.10
2023-02-04T07:18:44.447Z,11.00
2023-02-04T07:21:14.082Z,11.10
2023-02-04T07:23:43.429Z,11.10
2023-02-04T07:26:10.734Z,11.20
2023-02-04T07:28:41.230Z,11.30
2023-02-04T07:31:11.174Z,11.40
2023-02-04T07:33:38.491Z,11.30
2023-02-04T07:36:05.872Z,11.20
2023-02-04T07:38:33.183Z,11.20
2023-02-04T07:41:02.651Z,11.20
2023-02-04T07:43:32.659Z,11.20
2023-02-04T07:46:04.282Z,11.20
2023-02-04T07:48:31.617Z,11.20
2023-02-04T07:51:03.542Z,11.20
2023-02-04T07:53:30.815Z,11.10
2023-02-04T07:55:58.106Z,11.20
2023-02-04T07:58:25.391Z,11.10
2023-02-04T08:00:52.625Z,11.00
2023-02-04T08:03:19.852Z,11.10
2023-02-04T08:05:49.569Z,11.20
2023-02-04T08:08:16.778Z,11.40
2023-02-04T08:10:44.000Z,11.60
2023-02-04T08:13:11.264Z,11.70
2023-02-04T08:15:38.596Z,11.80
2023-02-04T08:18:05.913Z,11.80
2023-02-04T08:20:33.618Z,11.80
2023-02-04T08:23:01.072Z,11.90
2023-02-04T08:25:33.286Z,11.90
2023-02-04T08:28:00.719Z,12.00
2023-02-04T08:30:28.011Z,11.90
2023-02-04T08:32:57.335Z,11.90
2023-02-04T08:35:24.698Z,11.90
2023-02-04T08:37:54.129Z,11.90
2023-02-04T08:40:24.261Z,11.90
2023-02-04T08:42:51.510Z,11.90
2023-02-04T08:45:21.139Z,11.90
2023-02-04T08:47:50.552Z,11.90
2023-02-04T08:50:20.090Z,12.00
2023-02-04T08:52:47.331Z,12.00
2023-02-04T08:55:15.825Z,12.10
2023-02-04T08:57:45.339Z,12.10
2023-02-04T09:00:13.243Z,12.00
2023-02-04T09:02:45.341Z,11.70
2023-02-04T09:05:12.699Z,11.80
2023-02-04T09:07:44.594Z,11.90
2023-02-04T09:10:11.848Z,11.80
2023-02-04T09:12:39.098Z,11.70
2023-02-04T09:15:06.648Z,11.50
2023-02-04T09:17:36.065Z,11.40
2023-02-04T09:20:06.795Z,11.30
2023-02-04T09:22:34.132Z,11.30
2023-02-04T09:25:01.374Z,11.50
2023-02-04T09:27:30.732Z,11.40
2023-02-04T09:29:58.000Z,11.30
2023-02-04T09:32:25.223Z,11.10
2023-02-04T09:34:55.063Z,11.20
2023-02-04T09:37:26.925Z,11.10
2023-02-04T09:39:54.862Z,11.40
2023-02-04T09:42:26.735Z,11.70
2023-02-04T09:44:54.153Z,11.90
2023-02-04T09:47:25.391Z,12.00
2023-02-04T09:49:52.896Z,12.20
2023-02-04T09:52:20.735Z,12.40
2023-02-04T09:54:50.723Z,12.50
2023-02-04T09:57:19.985Z,12.60
2023-02-04T09:59:49.734Z,12.30
2023-02-04T10:02:26.994Z,12.40
2023-02-04T10:04:59.900Z,12.40
2023-02-04T10:07:27.951Z,12.50
2023-02-04T10:09:56.006Z,12.70
2023-02-04T10:12:23.338Z,12.90
2023-02-04T10:14:50.556Z,12.90
2023-02-04T10:17:22.023Z,13.00
2023-02-04T10:19:49.667Z,13.10
2023-02-04T10:22:23.838Z,13.20
2023-02-04T10:24:51.154Z,13.20
2023-02-04T10:27:20.705Z,13.20
2023-02-04T10:30:00.293Z,13.20
2023-02-04T10:32:33.096Z,13.20
2023-02-04T10:35:02.376Z,13.30
2023-02-04T10:37:30.769Z,13.30
2023-02-04T10:39:58.279Z,13.30
2023-02-04T10:42:29.626Z,13.30
2023-02-04T10:44:58.199Z,12.90
2023-02-04T10:47:31.517Z,12.80
2023-02-04T10:50:15.207Z,12.40
2023-02-04T10:52:45.710Z,12.40
2023-02-04T10:55:19.884Z,12.40
2023-02-04T10:57:49.070Z,12.30
2023-02-04T11:00:23.094Z,12.10
2023-02-04T11:03:08.120Z,12.10
2023-02-04T11:05:37.022Z,12.10
2023-02-04T11:08:24.131Z,12.20
2023-02-04T11:11:25.171Z,12.30
2023-02-04T11:13:55.734Z,12.30
2023-02-04T11:16:28.878Z,12.30
2023-02-04T11:19:03.422Z,12.40
2023-02-04T11:21:33.765Z,12.40
2023-02-04T11:24:09.578Z,12.50
2023-02-04T11:26:40.199Z,12.50
2023-02-04T11:29:10.702Z,12.50
2023-02-04T11:31:57.923Z,12.60
2023-02-04T11:34:28.844Z,12.60
2023-02-04T11:36:58.934Z,12.70
2023-02-04T11:39:28.689Z,12.70
2023-02-04T11:41:56.054Z,12.50
2023-02-04T11:44:26.332Z,12.60
2023-02-04T11:46:58.363Z,12.70
2023-02-04T11:49:27.433Z,12.80
2023-02-04T11:52:08.687Z,12.90
2023-02-04T11:54:37.417Z,13.00
2023-02-04T11:57:05.528Z,13.20
2023-02-04T11:59:35.197Z,13.40
2023-02-04T12:02:17.390Z,13.50
2023-02-04T12:04:58.767Z,13.40
2023-02-04T12:07:31.620Z,13.30
2023-02-04T12:10:19.992Z,13.30
2023-02-04T12:12:58.273Z,13.30
2023-02-04T12:15:33.486Z,13.30
2023-02-04T12:18:03.378Z,13.20
2023-02-04T12:20:30.759Z,13.10
2023-02-04T12:23:02.752Z,12.90
2023-02-04T12:25:30.970Z,13.10
2023-02-04T12:27:58.642Z,13.30
2023-02-04T12:30:28.262Z,13.40
2023-02-04T12:32:55.527Z,13.50
2023-02-04T12:35:22.811Z,13.50
2023-02-04T12:37:52.308Z,13.60
2023-02-04T12:40:21.385Z,13.60
2023-02-04T12:42:48.668Z,13.70
2023-02-04T12:45:19.837Z,13.80
2023-02-04T12:47:47.515Z,13.90
2023-02-04T12:50:22.785Z,14.10
2023-02-04T12:52:54.965Z,14.20
2023-02-04T12:55:24.612Z,14.10
2023-02-04T12:57:52.460Z,14.00
2023-02-04T13:00:20.962Z,14.00
2023-02-04T13:02:50.997Z,14.00
2023-02-04T13:05:18.709Z,14.00
2023-02-04T13:07:45.980Z,14.10
2023-02-04T13:10:15.788Z,14.00
2023-02-04T13:12:45.859Z,13.70
2023-02-04T13:15:13.483Z,13.40
2023-02-04T13:17:40.744Z,13.20
2023-02-04T13:20:11.195Z,13.20
2023-02-04T13:22:38.853Z,13.00
2023-02-04T13:25:06.652Z,13.10
2023-02-04T13:27:33.917Z,13.10
2023-02-04T13:30:01.150Z,13.10
2023-02-04T13:32:31.013Z,13.30
2023-02-04T13:35:00.654Z,13.20
2023-02-04T13:37:27.900Z,13.20
2023-02-04T13:39:57.532Z,13.30
2023-02-04T13:42:24.987Z,13.40
2023-02-04T13:44:52.497Z,13.40
2023-02-04T13:47:22.933Z,13.30
2023-02-04T13:49:50.374Z,13.20
2023-02-04T13:52:20.160Z,13.40
2023-02-04T13:54:47.562Z,13.50
2023-02-04T13:57:14.800Z,13.30
2023-02-04T13:59:42.060Z,13.40
2023-02-04T14:02:09.476Z,13.50
2023-02-04T14:04:37.046Z,13.60
2023-02-04T14:07:04.282Z,13.50
2023-02-04T14:09:33.775Z,13.60
2023-02-04T14:12:01.015Z,13.50
2023-02-04T14:14:30.827Z,13.70
2023-02-04T14:17:00.372Z,13.90
2023-02-04T14:19:30.169Z,14.00
2023-02-04T14:21:58.808Z,14.00
2023-02-04T14:24:26.193Z,14.10
2023-02-04T14:26:56.180Z,14.20
2023-02-04T14:29:23.606Z,14.20
2023-02-04T14:31:50.901Z,14.10
2023-02-04T14:34:18.177Z,14.00
2023-02-04T14:36:45.674Z,13.80
2023-02-04T14:39:15.171Z,13.70
2023-02-04T14:41:44.887Z,13.70
2023-02-04T14:44:12.683Z,13.70
2023-02-04T14:46:41.277Z,13.80
2023-02-04T14:49:10.976Z,13.70
2023-02-04T14:51:38.541Z,13.70
2023-02-04T14:54:05.837Z,13.80
2023-02-04T14:56:33.086Z,13.80
2023-02-04T14:59:03.050Z,14.10
2023-02-04T15:01:31.058Z,14.20
2023-02-04T15:03:58.459Z,14.10
2023-02-04T15:06:25.809Z,14.00
2023-02-04T15:08:55.457Z,13.90
2023-02-04T15:11:22.677Z,13.90
2023-02-04T15:13:52.105Z,13.60
2023-02-04T15:16:21.742Z,13.30
2023-02-04T15:18:51.690Z,13.30
2023-02-04T15:21:19.073Z,13.30
2023-02-04T15:23:48.771Z,13.40
2023-02-04T15:26:16.053Z,13.20
2023-02-04T15:28:46.113Z,13.20
2023-02-04T15:31:13.515Z,13.00
2023-02-04T15:33:42.920Z,13.00
2023-02-04T15:36:10.238Z,13.20
2023-02-04T15:38:37.573Z,13.00
2023-02-04T15:41:05.177Z,13.10
2023-02-04T15:43:32.430Z,13.10
2023-02-04T15:45:59.894Z,13.10
2023-02-04T15:48:28.307Z,13.10
2023-02-04T15:50:56.337Z,13.10
2023-02-04T15:53:24.168Z,13.20
2023-02-04T15:55:51.453Z,13.10
2023-02-04T15:58:18.702Z,12.90
2023-02-04T16:00:45.951Z,13.10
2023-02-04T16:03:13.242Z,13.10
2023-02-04T16:05:42.979Z,13.10
2023-02-04T16:08:10.415Z,13.20
2023-02-04T16:10:42.314Z,13.30
2023-02-04T16:13:12.134Z,13.20
2023-02-04T16:15:41.623Z,13.00
2023-02-04T16:18:11.707Z,13.00
2023-02-04T16:20:41.328Z,13.00
2023-02-04T16:23:08.588Z,13.20
2023-02-04T16:25:36.001Z,13.10
2023-02-04T16:28:03.969Z,13.10
2023-02-04T16:30:31.276Z,13.20
2023-02-04T16:32:58.619Z,13.10
2023-02-04T16:35:27.125Z,13.10
2023-02-04T16:37:54.417Z,13.00
2023-02-04T16:40:21.724Z,13.00
2023-02-04T16:42:53.719Z,13.10
2023-02-04T16:45:21.355Z,13.10
2023-02-04T16:47:51.380Z,13.20
2023-02-04T16:50:20.778Z,13.30
2023-02-04T16:52:48.052Z,13.40
2023-02-04T16:55:15.372Z,13.40
2023-02-04T16:57:43.360Z,13.40
2023-02-04T17:00:11.493Z,13.40
2023-02-04T17:02:38.833Z,13.30
2023-02-04T17:05:06.640Z,13.40
2023-02-04T17:07:33.957Z,13.40
2023-02-04T17:10:01.252Z,13.40
2023-02-04T17:12:28.682Z,13.40
2023-02-04T17:14:58.053Z,13.40
2023-02-04T17:17:27.886Z,13.20
2023-02-04T17:19:55.118Z,12.70
2023-02-04T17:22:24.520Z,12.50
2023-02-04T17:24:52.176Z,12.40
2023-02-04T17:27:19.431Z,12.50
2023-02-04T17:29:46.665Z,12.70
2023-02-04T17:32:13.896Z,12.80
2023-02-04T17:34:41.356Z,12.80
2023-02-04T17:37:08.685Z,12.90
2023-02-04T17:39:38.597Z,12.90
2023-02-04T17:42:08.280Z,13.00
2023-02-04T17:44:38.009Z,13.10
2023-02-04T17:47:07.476Z,13.10
2023-02-04T17:49:37.570Z,13.10
2023-02-04T17:52:04.979Z,13.10
2023-02-04T17:54:34.421Z,13.10
2023-02-04T17:57:12.406Z,13.10
2023-02-04T17:59:41.009Z,13.10
2023-02-04T18:02:29.783Z,13.10
2023-02-04T18:05:07.799Z,13.10
2023-02-04T18:07:37.502Z,13.10
2023-02-04T18:10:20.926Z,13.10
2023-02-04T18:12:48.787Z,12.90
2023-02-04T18:15:28.547Z,12.80
2023-02-04T18:18:21.305Z,12.80
2023-02-04T18:20:59.511Z,12.80
2023-02-04T18:23:29.943Z,12.70
2023-02-04T18:26:19.391Z,12.50
2023-02-04T18:28:48.843Z,12.30
2023-02-04T18:31:28.899Z,12.20
2023-02-04T18:33:57.229Z,12.20
2023-02-04T18:36:28.918Z,12.30
2023-02-04T18:38:56.227Z,12.30
2023-02-04T18:41:33.874Z,12.30
2023-02-04T18:44:16.773Z,12.40
2023-02-04T18:46:48.464Z,12.50
2023-02-04T18:49:39.661Z,12.50
2023-02-04T18:52:21.346Z,12.30
2023-02-04T18:54:57.043Z,12.20
2023-02-04T18:57:37.578Z,12.30
2023-02-04T19:00:11.332Z,12.20
2023-02-04T19:02:45.950Z,12.10
2023-02-04T19:05:32.113Z,12.10
2023-02-04T19:08:05.790Z,11.90
2023-02-04T19:10:38.493Z,11.80
2023-02-04T19:13:22.724Z,11.70
2023-02-04T19:16:03.629Z,11.60
2023-02-04T19:18:38.693Z,11.50
2023-02-04T19:21:27.241Z,11.50
2023-02-04T19:24:11.797Z,11.50
2023-02-04T19:26:57.209Z,11.60
2023-02-04T19:29:30.468Z,11.80
2023-02-04T19:32:28.763Z,11.90
2023-02-04T19:35:01.914Z,12.10
2023-02-04T19:37:39.973Z,12.10
2023-02-04T19:40:24.013Z,12.00
2023-02-04T19:43:04.034Z,12.00
2023-02-04T19:45:33.660Z,12.10
2023-02-04T19:48:04.150Z,12.10
2023-02-04T19:50:38.869Z,12.10
2023-02-04T19:53:09.055Z,11.90
2023-02-04T19:55:43.407Z,11.80
2023-02-04T19:58:18.539Z,11.80
2023-02-04T20:00:51.763Z,11.70
2023-02-04T20:03:31.082Z,11.70
2023-02-04T20:06:21.611Z,11.60
2023-02-04T20:09:10.431Z,11.60
2023-02-04T20:11:48.855Z,11.40
2023-02-04T20:14:34.993Z,11.50
2023-02-04T20:17:10.757Z,11.50
2023-02-04T20:19:39.037Z,11.60
2023-02-04T20:22:23.629Z,11.60
2023-02-04T20:24:53.314Z,11.70
2023-02-04T20:27:27.956Z,11.60
2023-02-04T20:30:27.375Z,11.30
2023-02-04T20:32:56.974Z,11.20
2023-02-04T20:35:44.444Z,11.00
2023-02-04T20:38:17.255Z,11.00
2023-02-04T20:40:46.745Z,10.90
2023-02-04T20:43:24.134Z,11.10
2023-02-04T20:46:00.056Z,11.20
2023-02-04T20:48:41.615Z,11.10
2023-02-04T20:51:23.059Z,11.30
2023-02-04T20:53:52.641Z,11.30
2023-02-04T20:56:28.845Z,11.30
2023-02-04T20:59:13.587Z,11.30
2023-02-04T21:01:48.640Z,11.00
2023-02-04T21:04:25.912Z,10.70
2023-02-04T21:07:00.898Z,10.70
2023-02-04T21:09:34.134Z,10.70
2023-02-04T21:12:02.618Z,10.50
2023-02-04T21:14:32.592Z,10.40
2023-02-04T21:17:00.245Z,10.50
2023-02-04T21:19:28.126Z,10.40
2023-02-04T21:21:57.325Z,10.30
2023-02-04T21:24:31.874Z,10.40
2023-02-04T21:26:59.496Z,10.50
2023-02-04T21:29:31.479Z,10.50
2023-02-04T21:31:58.715Z,10.60
2023-02-04T21:34:25.995Z,10.50
2023-02-04T21:36:55.481Z,10.50
2023-02-04T21:39:22.881Z,10.40
2023-02-04T21:42:10.001Z,10.50
2023-02-04T21:44:38.223Z,10.40
2023-02-04T21:47:05.667Z,10.40
2023-02-04T21:49:36.428Z,10.60
2023-02-04T21:52:05.461Z,10.70
2023-02-04T21:54:32.700Z,10.70
2023-02-04T21:57:04.411Z,10.80
2023-02-04T21:59:33.793Z,10.80
2023-02-04T22:02:03.250Z,10.70
2023-02-04T22:04:33.053Z,10.50
2023-02-04T22:07:00.760Z,10.50
2023-02-04T22:09:28.038Z,10.30
2023-02-04T22:11:55.251Z,10.20
2023-02-04T22:14:24.960Z,10.10
2023-02-04T22:16:52.189Z,10.10
2023-02-04T22:19:19.711Z,10.10
2023-02-04T22:21:46.968Z,10.00
2023-02-04T22:24:14.213Z,10.00
2023-02-04T22:26:41.424Z,10.00
2023-02-04T22:29:08.683Z,9.90
2023-02-04T22:31:36.225Z,9.90
2023-02-04T22:34:05.485Z,9.80
2023-02-04T22:36:32.731Z,9.60
2023-02-04T22:39:00.017Z,9.70
2023-02-04T22:41:27.273Z,9.70
2023-02-04T22:43:56.951Z,9.70
2023-02-04T22:46:26.318Z,9.70
2023-02-04T22:48:55.918Z,9.80
2023-02-04T22:51:23.700Z,9.80
2023-02-04T22:53:50.938Z,9.70
2023-02-04T22:56:21.434Z,9.70
2023-02-04T22:58:48.716Z,9.60
2023-02-04T23:01:20.327Z,9.70
2023-02-04T23:03:48.977Z,9.60
2023-02-04T23:06:18.798Z,9.60
2023-02-04T23:08:48.693Z,9.40
2023-02-04T23:11:18.619Z,9.40
2023-02-04T23:13:46.600Z,9.40
2023-02-04T23:16:15.990Z,9.40
2023-02-04T23:18:45.934Z,9.50
2023-02-04T23:21:14.000Z,9.50
2023-02-04T23:23:42.036Z,9.50
2023-02-04T23:26:11.595Z,9.60
2023-02-04T23:28:38.843Z,9.60
2023-02-04T23:31:06.111Z,9.70
2023-02-04T23:33:35.819Z,9.70
2023-02-04T23:36:03.904Z,9.70
2023-02-04T23:38:33.439Z,9.70
2023-02-04T23:41:02.910Z,9.70
2023-02-04T23:43:30.162Z,9.70
2023-02-04T23:46:00.243Z,9.80
2023-02-04T23:48:27.625Z,9.90
2023-02-04T23:50:57.078Z,9.80
2023-02-04T23:53:24.545Z,9.90
2023-02-04T23:55:52.147Z,10.10
2023-02-04T23:58:19.829Z,10.20
